createdAt,value
2018-01-04T00:00:10.907Z,94360.33
2018-01-04T00:02:39.512Z,94366.08
2018-01-04T00:05:07.278Z,94371.15
2018-01-04T00:07:35.551Z,94383.33
2018-01-04T00:10:03.305Z,94372.72
2018-01-04T00:12:31.072Z,94382.15
2018-01-04T00:14:58.911Z,94383.80
2018-01-04T00:17:26.715Z,94385.45
2018-01-04T00:19:54.370Z,94381.34
2018-01-04T00:22:21.975Z,94387.84
2018-01-04T00:24:49.669Z,94392.23
2018-01-04T00:27:18.177Z,94396.39
2018-01-04T00:29:46.454Z,94393.54
2018-01-04T00:32:14.366Z,94389.52
2018-01-04T00:34:41.955Z,94393.83
2018-01-04T00:37:09.528Z,94394.16
2018-01-04T00:39:37.306Z,94386.75
2018-01-04T00:42:04.939Z,94392.75
2018-01-04T00:44:32.698Z,94391.72
2018-01-04T00:47:00.474Z,94393.13
2018-01-04T00:49:28.102Z,94400.45
2018-01-04T00:51:56.133Z,94394.83
2018-01-04T00:54:24.046Z,94378.52
2018-01-04T00:56:51.670Z,94393.11
2018-01-04T00:59:19.305Z,94382.45
2018-01-04T01:01:46.872Z,94379.92
2018-01-04T01:04:14.506Z,94369.61
2018-01-04T01:06:42.130Z,94369.04
2018-01-04T01:09:10.008Z,94376.18
2018-01-04T01:11:37.657Z,94368.82
2018-01-04T01:14:05.353Z,94365.61
2018-01-04T01:16:33.160Z,94370.38
2018-01-04T01:19:00.733Z,94371.64
2018-01-04T01:21:33.660Z,94376.27
2018-01-04T01:24:01.305Z,94362.84
2018-01-04T01:26:28.877Z,94354.05
2018-01-04T01:28:56.489Z,94354.73
2018-01-04T01:31:24.214Z,94349.82
2018-01-04T01:33:52.727Z,94346.83
2018-01-04T01:36:20.394Z,94341.13
2018-01-04T01:38:47.988Z,94343.67
2018-01-04T01:41:15.668Z,94338.37
2018-01-04T01:43:43.460Z,94339.07
2018-01-04T01:46:11.059Z,94336.91
2018-01-04T01:48:39.336Z,94333.84
2018-01-04T01:51:06.970Z,94323.04
2018-01-04T01:53:34.758Z,94326.94
2018-01-04T01:56:02.588Z,94324.68
2018-01-04T01:58:30.282Z,94314.26
2018-01-04T02:00:57.936Z,94313.91
2018-01-04T02:03:25.577Z,94316.52
2018-01-04T02:05:53.226Z,94318.61
2018-01-04T02:08:20.856Z,94322.27
2018-01-04T02:10:48.473Z,94324.86
2018-01-04T02:13:16.230Z,94317.64
2018-01-04T02:15:44.030Z,94320.16
2018-01-04T02:18:23.558Z,94310.62
2018-01-04T02:21:02.733Z,94310.47
2018-01-04T02:23:42.056Z,94302.99
2018-01-04T02:26:09.744Z,94306.52
2018-01-04T02:28:49.095Z,94308.16
2018-01-04T02:31:28.663Z,94297.23
2018-01-04T02:34:08.067Z,94294.84
2018-01-04T02:36:47.468Z,94309.62
2018-01-04T02:39:26.718Z,94301.84
2018-01-04T02:42:06.209Z,94299.20
2018-01-04T02:44:43.466Z,94296.02
2018-01-04T02:47:11.154Z,94299.57
2018-01-04T02:49:38.818Z,94298.79
2018-01-04T02:52:06.392Z,94298.38
2018-01-04T02:54:33.988Z,94296.42
2018-01-04T02:57:01.630Z,94299.63
2018-01-04T02:59:29.222Z,94305.78
2018-01-04T03:01:57.689Z,94306.14
2018-01-04T03:04:25.294Z,94314.48
2018-01-04T03:06:53.068Z,94316.83
2018-01-04T03:09:20.728Z,94319.66
2018-01-04T03:11:49.133Z,94316.34
2018-01-04T03:14:17.360Z,94318.03
2018-01-04T03:16:45.613Z,94316.27
2018-01-04T03:19:13.295Z,94319.35
2018-01-04T03:21:48.129Z,94310.07
2018-01-04T03:24:16.064Z,94311.77
2018-01-04T03:26:49.251Z,94312.52
2018-01-04T03:29:33.251Z,94313.09
2018-01-04T03:35:18.872Z,94314.41
2018-01-04T03:37:51.961Z,94318.20
2018-01-04T03:40:25.109Z,94321.50
2018-01-04T03:46:02.978Z,94324.56
2018-01-04T03:48:30.606Z,94330.55
2018-01-04T03:51:03.860Z,94319.64
2018-01-04T03:53:36.941Z,94334.66
2018-01-04T03:56:10.024Z,94335.89
2018-01-04T03:58:43.321Z,94332.90
2018-01-04T04:01:16.458Z,94337.53
2018-01-04T04:03:44.089Z,94347.67
2018-01-04T04:06:17.911Z,94344.45
2018-01-04T04:08:45.497Z,94346.90
2018-01-04T04:11:13.335Z,94335.64
2018-01-04T04:13:41.184Z,94335.33
2018-01-04T04:16:08.810Z,94331.31
2018-01-04T04:18:36.392Z,94333.88
2018-01-04T04:21:04.055Z,94339.64
2018-01-04T04:23:32.463Z,94339.47
2018-01-04T04:26:00.075Z,94333.08
2018-01-04T04:28:27.700Z,94339.67
2018-01-04T04:30:55.271Z,94345.80
2018-01-04T04:33:23.082Z,94346.96
2018-01-04T04:35:50.723Z,94351.66
2018-01-04T04:38:18.348Z,94334.16
2018-01-04T04:40:46.159Z,94357.41
2018-01-04T04:43:13.783Z,94352.20
2018-01-04T04:45:41.982Z,94340.12
2018-01-04T04:48:10.392Z,94342.97
2018-01-04T04:50:38.034Z,94347.14
2018-01-04T04:53:05.699Z,94343.32
2018-01-04T04:55:33.399Z,94342.69
2018-01-04T04:58:00.968Z,94339.03
2018-01-04T05:00:28.604Z,94341.36
2018-01-04T05:02:56.195Z,94345.40
2018-01-04T05:05:23.851Z,94347.50
2018-01-04T05:07:51.480Z,94353.19
2018-01-04T05:10:19.384Z,94354.72
2018-01-04T05:12:47.106Z,94346.81
2018-01-04T05:15:14.823Z,94350.45
2018-01-04T05:17:42.542Z,94359.21
2018-01-04T05:20:10.178Z,94360.15
2018-01-04T05:22:37.877Z,94351.83
2018-01-04T05:25:05.776Z,94357.00
2018-01-04T05:27:33.343Z,94360.83
2018-01-04T05:30:00.922Z,94366.67
2018-01-04T05:32:28.546Z,94365.56
2018-01-04T05:34:56.399Z,94364.80
2018-01-04T05:37:23.985Z,94371.36
2018-01-04T05:39:51.619Z,94370.48
2018-01-04T05:42:19.271Z,94373.45
2018-01-04T05:44:46.927Z,94379.08
2018-01-04T05:47:14.611Z,94374.80
2018-01-04T05:49:42.429Z,94383.27
2018-01-04T05:52:10.288Z,94376.92
2018-01-04T05:54:38.422Z,94375.60
2018-01-04T05:57:07.596Z,94371.75
2018-01-04T05:59:35.426Z,94371.84
2018-01-04T06:02:03.101Z,94370.23
2018-01-04T06:04:31.181Z,94367.50
2018-01-04T06:06:58.787Z,94367.86
2018-01-04T06:09:26.357Z,94367.82
2018-01-04T06:11:54.244Z,94368.78
2018-01-04T06:14:23.605Z,94372.92
2018-01-04T06:16:51.396Z,94375.34
2018-01-04T06:19:19.442Z,94361.23
2018-01-04T06:21:48.873Z,94377.67
2018-01-04T06:24:17.485Z,94381.89
2018-01-04T06:26:45.351Z,94392.86
2018-01-04T06:29:13.314Z,94397.14
2018-01-04T06:31:41.174Z,94395.77
2018-01-04T06:34:09.046Z,94393.70
2018-01-04T06:36:38.323Z,94405.77
2018-01-04T06:39:05.986Z,94407.52
2018-01-04T06:41:33.822Z,94339.03
2018-01-04T06:44:02.511Z,94415.18
2018-01-04T06:46:31.011Z,94419.95
2018-01-04T06:48:58.716Z,94419.28
2018-01-04T06:51:26.282Z,94416.32
2018-01-04T06:53:54.045Z,94416.70
2018-01-04T06:56:26.036Z,94421.82
2018-01-04T06:58:54.140Z,94425.83
2018-01-04T07:01:22.468Z,94422.63
2018-01-04T07:03:50.132Z,94421.13
2018-01-04T07:06:18.122Z,94427.30
2018-01-04T07:08:45.908Z,94428.70
2018-01-04T07:11:13.960Z,94427.42
2018-01-04T07:13:41.575Z,94431.52
2018-01-04T07:16:10.013Z,94430.23
2018-01-04T07:18:38.062Z,94435.41
2018-01-04T07:21:06.045Z,94430.56
2018-01-04T07:23:33.957Z,94433.28
2018-01-04T07:26:01.745Z,94440.39
2018-01-04T07:28:30.255Z,94435.39
2018-01-04T07:30:58.145Z,94437.01
2018-01-04T07:33:25.993Z,94439.14
2018-01-04T07:35:53.589Z,94444.27
2018-01-04T07:38:21.419Z,94453.06
2018-01-04T07:40:49.128Z,94454.91
2018-01-04T07:43:17.392Z,94455.99
2018-01-04T07:45:45.196Z,94458.92
2018-01-04T07:48:13.127Z,94465.27
2018-01-04T07:50:41.654Z,94461.92
2018-01-04T07:53:09.324Z,94468.65
2018-01-04T07:55:37.080Z,94467.46
2018-01-04T07:58:04.789Z,94466.74
2018-01-04T08:00:32.615Z,94468.56
2018-01-04T08:03:00.453Z,94470.98
2018-01-04T08:05:28.398Z,94469.58
2018-01-04T08:07:56.259Z,94469.31
2018-01-04T08:10:24.209Z,94468.25
2018-01-04T08:12:52.004Z,94477.33
2018-01-04T08:15:19.820Z,94471.10
2018-01-04T08:17:48.114Z,94478.50
2018-01-04T08:20:15.683Z,94480.71
2018-01-04T08:22:43.345Z,94478.36
2018-01-04T08:25:11.532Z,94481.41
2018-01-04T08:27:39.146Z,94485.63
2018-01-04T08:30:08.257Z,94491.80
2018-01-04T08:32:36.668Z,94493.62
2018-01-04T08:35:04.258Z,94514.41
2018-01-04T08:37:31.903Z,94504.52
2018-01-04T08:39:59.435Z,94500.34
2018-01-04T08:42:26.989Z,94505.67
2018-01-04T08:44:54.624Z,94505.74
2018-01-04T08:47:22.736Z,94508.19
2018-01-04T08:49:50.295Z,94509.49
2018-01-04T08:52:17.871Z,94504.53
2018-01-04T08:54:45.420Z,94511.64
2018-01-04T08:57:13.023Z,94508.99
2018-01-04T08:59:40.678Z,94502.16
2018-01-04T09:02:08.346Z,94506.91
2018-01-04T09:04:36.250Z,94501.98
2018-01-04T09:07:03.901Z,94503.03
2018-01-04T09:09:31.735Z,94506.83
2018-01-04T09:11:59.354Z,94504.61
2018-01-04T09:14:26.927Z,94516.11
2018-01-04T09:16:54.644Z,94510.76
2018-01-04T09:19:22.429Z,94510.91
2018-01-04T09:21:50.182Z,94518.41
2018-01-04T09:24:18.555Z,94516.60
2018-01-04T09:26:46.696Z,94507.31
2018-01-04T09:29:15.095Z,94519.85
2018-01-04T09:31:42.702Z,94511.48
2018-01-04T09:34:10.991Z,94517.45
2018-01-04T09:36:38.926Z,94519.16
2018-01-04T09:39:06.505Z,94523.51
2018-01-04T09:41:34.322Z,94515.18
2018-01-04T09:44:02.669Z,94510.77
2018-01-04T09:46:30.298Z,94516.97
2018-01-04T09:48:57.847Z,94500.41
2018-01-04T09:51:26.504Z,94501.50
2018-01-04T09:53:54.320Z,94496.14
2018-01-04T09:56:21.846Z,94507.34
2018-01-04T09:58:49.477Z,94507.24
2018-01-04T10:01:17.783Z,94515.85
2018-01-04T10:03:45.415Z,94510.16
2018-01-04T10:06:13.884Z,94506.27
2018-01-04T10:08:41.508Z,94504.53
2018-01-04T10:11:09.151Z,94510.77
2018-01-04T10:13:36.761Z,94504.77
2018-01-04T10:16:04.342Z,94500.31
2018-01-04T10:18:32.188Z,94507.54
2018-01-04T10:21:00.678Z,94501.20
2018-01-04T10:23:28.328Z,94501.10
2018-01-04T10:25:56.033Z,94497.27
2018-01-04T10:28:23.749Z,94493.77
2018-01-04T10:30:51.805Z,94499.92
2018-01-04T10:33:20.400Z,94503.91
2018-01-04T10:35:48.072Z,94511.52
2018-01-04T10:38:15.686Z,94515.02
2018-01-04T10:40:44.210Z,94506.06
2018-01-04T10:43:12.000Z,94513.02
2018-01-04T10:45:39.658Z,94514.07
2018-01-04T10:48:08.030Z,94511.72
2018-01-04T10:50:36.026Z,94502.98
2018-01-04T10:53:04.986Z,94509.54
2018-01-04T10:55:32.699Z,94515.00
2018-01-04T10:58:00.622Z,94514.88
2018-01-04T11:00:29.119Z,94520.14
2018-01-04T11:02:58.522Z,94519.64
2018-01-04T11:05:27.020Z,94517.61
2018-01-04T11:07:54.696Z,94517.47
2018-01-04T11:10:22.365Z,94510.50
2018-01-04T11:12:50.129Z,94508.72
2018-01-04T11:15:18.642Z,94518.52
2018-01-04T11:17:46.501Z,94502.73
2018-01-04T11:20:14.154Z,94503.07
2018-01-04T11:22:41.825Z,94508.69
2018-01-04T11:25:10.446Z,94503.44
2018-01-04T11:27:38.104Z,94521.11
2018-01-04T11:30:08.275Z,94516.95
2018-01-04T11:32:35.912Z,94528.20
2018-01-04T11:35:04.708Z,94518.28
2018-01-04T11:37:33.486Z,94499.80
2018-01-04T11:40:01.109Z,94511.08
2018-01-04T11:42:28.884Z,94510.28
2018-01-04T11:44:57.694Z,94509.89
2018-01-04T11:47:25.490Z,94509.55
2018-01-04T11:49:53.798Z,94503.28
2018-01-04T11:52:21.681Z,94513.27
2018-01-04T11:54:49.351Z,94516.49
2018-01-04T11:57:16.937Z,94522.06
2018-01-04T11:59:44.798Z,94511.42
2018-01-04T12:02:12.432Z,94522.31
2018-01-04T12:04:40.028Z,94519.80
2018-01-04T12:07:07.645Z,94527.93
2018-01-04T12:09:36.075Z,94523.73
2018-01-04T12:12:03.696Z,94529.42
2018-01-04T12:14:31.309Z,94527.25
2018-01-04T12:16:58.968Z,94519.22
2018-01-04T12:19:26.570Z,94517.72
2018-01-04T12:21:56.197Z,94529.37
2018-01-04T12:24:23.827Z,94530.90
2018-01-04T12:26:51.501Z,94529.62
2018-01-04T12:29:19.916Z,94536.50
2018-01-04T12:31:47.747Z,94536.67
2018-01-04T12:34:15.349Z,94535.46
2018-01-04T12:36:43.187Z,94542.50
2018-01-04T12:39:10.803Z,94540.32
2018-01-04T12:41:40.902Z,94536.75
2018-01-04T12:44:08.535Z,94546.11
2018-01-04T12:46:36.217Z,94539.20
2018-01-04T12:49:03.834Z,94541.10
2018-01-04T12:51:31.931Z,94550.34
2018-01-04T12:54:00.265Z,94548.89
2018-01-04T12:56:28.128Z,94548.11
2018-01-04T12:58:55.948Z,94548.51
2018-01-04T13:01:24.298Z,94556.90
2018-01-04T13:03:52.103Z,94549.54
2018-01-04T13:06:19.754Z,94553.88
2018-01-04T13:08:47.369Z,94563.44
2018-01-04T13:11:15.366Z,94581.56
2018-01-04T13:13:43.298Z,94568.80
2018-01-04T13:16:11.605Z,94561.38
2018-01-04T13:18:39.167Z,94571.34
2018-01-04T13:21:07.270Z,94556.66
2018-01-04T13:23:35.234Z,94574.00
2018-01-04T13:26:03.527Z,94576.03
2018-01-04T13:28:31.186Z,94577.77
2018-01-04T13:30:59.541Z,94582.73
2018-01-04T13:33:30.751Z,94579.84
2018-01-04T13:35:58.307Z,94581.87
2018-01-04T13:38:26.152Z,94584.51
2018-01-04T13:40:57.313Z,94590.00
2018-01-04T13:43:24.952Z,94586.84
2018-01-04T13:45:52.607Z,94590.64
2018-01-04T13:48:20.402Z,94585.47
2018-01-04T13:50:47.957Z,94586.51
2018-01-04T13:53:15.629Z,94579.77
2018-01-04T13:55:43.466Z,94537.17
2018-01-04T13:58:11.087Z,94579.02
2018-01-04T14:00:38.972Z,94583.18
2018-01-04T14:03:06.793Z,94588.11
2018-01-04T14:05:34.458Z,94589.47
2018-01-04T14:08:02.092Z,94591.00
2018-01-04T14:10:29.742Z,94583.82
2018-01-04T14:12:57.564Z,94584.87
2018-01-04T14:15:26.156Z,94579.33
2018-01-04T14:17:57.253Z,94578.67
2018-01-04T14:20:24.883Z,94586.70
2018-01-04T14:46:59.613Z,94620.67
2018-01-04T14:49:27.447Z,94623.45
2018-01-04T14:51:55.058Z,94635.97
2018-01-04T14:54:23.628Z,94644.47
2018-01-04T14:56:51.347Z,94641.90
2018-01-04T14:59:18.971Z,94641.84
2018-01-04T15:01:46.596Z,94639.51
2018-01-04T15:04:14.189Z,94645.42
2018-01-04T15:06:41.976Z,94644.13
2018-01-04T15:09:09.758Z,94640.97
2018-01-04T15:11:37.410Z,94642.70
2018-01-04T15:14:05.102Z,94648.10
2018-01-04T15:16:33.046Z,94644.05
2018-01-04T15:19:01.502Z,94652.85
2018-01-04T15:21:29.227Z,94662.17
2018-01-04T15:23:57.237Z,94667.05
2018-01-04T15:26:24.915Z,94675.45
2018-01-04T15:28:52.575Z,94671.39
2018-01-04T15:31:20.344Z,94669.12
2018-01-04T15:33:48.139Z,94666.27
2018-01-04T15:36:15.735Z,94677.28
2018-01-04T15:38:43.338Z,94674.67
2018-01-04T15:41:11.110Z,94675.78
2018-01-04T15:43:38.750Z,94676.18
2018-01-04T15:46:07.568Z,94660.69
2018-01-04T15:48:35.662Z,94668.02
2018-01-04T15:51:04.236Z,94675.03
2018-01-04T15:53:31.905Z,94678.29
2018-01-04T15:55:59.557Z,94679.00
2018-01-04T15:58:27.291Z,94680.64
2018-01-04T16:00:54.948Z,94679.89
2018-01-04T16:03:22.652Z,94668.15
2018-01-04T16:05:50.279Z,94687.99
2018-01-04T16:08:18.617Z,94687.70
2018-01-04T16:10:46.292Z,94689.77
2018-01-04T16:13:13.966Z,94694.42
2018-01-04T16:15:41.707Z,94688.72
2018-01-04T16:18:09.373Z,94699.91
2018-01-04T16:20:37.259Z,94698.27
2018-01-04T16:23:04.981Z,94708.17
2018-01-04T16:25:33.131Z,94708.33
2018-01-04T16:28:00.755Z,94713.44
2018-01-04T16:30:28.484Z,94725.82
2018-01-04T16:32:56.164Z,94718.72
2018-01-04T16:35:23.933Z,94720.13
2018-01-04T16:37:52.500Z,94723.61
2018-01-04T16:40:20.108Z,94726.80
2018-01-04T16:42:47.708Z,94732.55
2018-01-04T16:45:24.107Z,94736.08
2018-01-04T16:47:51.989Z,94736.64
2018-01-04T16:50:19.748Z,94734.94
2018-01-04T16:52:47.603Z,94734.45
2018-01-04T16:55:15.365Z,94729.42
2018-01-04T16:57:43.001Z,94745.19
2018-01-04T17:00:11.481Z,94731.41
2018-01-04T17:02:39.129Z,94738.48
2018-01-04T17:05:06.725Z,94749.75
2018-01-04T17:07:34.391Z,94755.66
2018-01-04T17:10:02.805Z,94752.36
2018-01-04T17:12:30.498Z,94750.61
2018-01-04T17:14:58.206Z,94765.97
2018-01-04T17:17:25.838Z,94772.36
2018-01-04T17:19:53.468Z,94769.52
2018-01-04T17:22:21.174Z,94768.33
2018-01-04T17:24:49.164Z,94775.83
2018-01-04T17:27:16.832Z,94781.71
2018-01-04T17:29:45.370Z,94769.91
2018-01-04T17:32:13.050Z,94770.23
2018-01-04T17:34:40.690Z,94775.73
2018-01-04T17:37:09.247Z,94779.20
2018-01-04T17:39:37.923Z,94776.55
2018-01-04T17:42:05.592Z,94787.43
2018-01-04T17:44:33.287Z,94778.46
2018-01-04T17:47:01.360Z,94790.86
2018-01-04T17:49:29.036Z,94781.02
2018-01-04T17:51:56.701Z,94787.63
2018-01-04T17:54:24.458Z,94789.66
2018-01-04T17:56:55.102Z,94789.66
2018-01-04T17:59:23.671Z,94793.80
2018-01-04T18:01:51.569Z,94796.94
2018-01-04T18:04:19.478Z,94802.91
2018-01-04T18:06:47.819Z,94802.69
2018-01-04T18:09:15.560Z,94803.22
2018-01-04T18:11:45.284Z,94793.17
2018-01-04T18:14:12.982Z,94800.73
2018-01-04T18:16:40.934Z,94799.07
2018-01-04T18:19:09.173Z,94804.35
2018-01-04T18:21:36.784Z,94803.84
2018-01-04T18:26:32.290Z,94808.17
2018-01-04T18:29:00.313Z,94805.43
2018-01-04T18:31:27.941Z,94813.69
2018-01-04T18:33:55.820Z,94814.23
2018-01-04T18:36:25.606Z,94813.91
2018-01-04T18:38:53.424Z,94813.20
2018-01-04T18:41:21.095Z,94817.70
2018-01-04T18:43:48.836Z,94818.27
2018-01-04T18:46:16.630Z,94812.27
2018-01-04T18:48:44.291Z,94820.13
2018-01-04T18:51:12.096Z,94816.22
2018-01-04T18:53:39.846Z,94811.56
2018-01-04T18:56:08.194Z,94826.68
2018-01-04T18:58:35.882Z,94818.25
2018-01-04T19:01:03.674Z,94815.01
2018-01-04T19:03:31.293Z,94825.94
2018-01-04T19:05:58.951Z,94831.16
2018-01-04T19:08:26.728Z,94833.13
2018-01-04T19:10:54.373Z,94838.41
2018-01-04T19:13:22.708Z,94838.73
2018-01-04T19:15:50.584Z,94837.66
2018-01-04T19:18:18.652Z,94842.39
2018-01-04T19:20:46.435Z,94838.77
2018-01-04T19:23:14.170Z,94841.81
2018-01-04T19:25:41.837Z,94845.02
2018-01-04T19:28:09.781Z,94848.93
2018-01-04T19:30:39.114Z,94845.70
2018-01-04T19:33:07.722Z,94854.75
2018-01-04T19:35:35.532Z,94850.95
2018-01-04T19:38:03.136Z,94864.95
2018-01-04T19:40:30.916Z,94858.23
2018-01-04T19:42:59.570Z,94850.73
2018-01-04T19:45:27.200Z,94855.53
2018-01-04T19:47:54.822Z,94860.03
2018-01-04T19:50:22.541Z,94855.45
2018-01-04T19:52:51.188Z,94859.75
2018-01-04T19:55:18.995Z,94858.20
2018-01-04T19:57:48.162Z,94862.22
2018-01-04T20:00:20.636Z,94868.19
2018-01-04T20:02:48.913Z,94868.62
2018-01-04T20:05:17.817Z,94864.55
2018-01-04T20:07:45.866Z,94863.43
2018-01-04T20:10:13.726Z,94864.91
2018-01-04T20:12:43.534Z,94867.30
2018-01-04T20:15:11.278Z,94876.41
2018-01-04T20:17:40.056Z,94870.58
2018-01-04T20:22:41.374Z,94872.06
2018-01-04T20:25:09.110Z,94868.56
2018-01-04T20:35:53.702Z,94876.48
2018-01-04T20:38:21.379Z,94880.06
2018-01-04T20:40:49.041Z,94883.62
2018-01-04T20:43:16.708Z,94888.05
2018-01-04T20:45:44.498Z,94886.75
2018-01-04T20:48:12.459Z,94886.61
2018-01-04T20:50:41.215Z,94888.52
2018-01-04T20:53:09.831Z,94890.55
2018-01-04T20:55:39.098Z,94887.84
2018-01-04T20:58:07.102Z,94883.22
2018-01-04T21:00:37.372Z,94887.55
2018-01-04T21:03:05.783Z,94887.49
2018-01-04T21:05:33.435Z,94891.36
2018-01-04T21:08:01.373Z,94887.19
2018-01-04T21:10:29.022Z,94872.64
2018-01-04T21:12:56.833Z,94881.92
2018-01-04T21:15:24.814Z,94881.24
2018-01-04T21:17:53.468Z,94882.88
2018-01-04T21:20:21.381Z,94883.89
2018-01-04T21:22:49.115Z,94883.70
2018-01-04T21:25:17.011Z,94885.36
2018-01-04T21:27:44.820Z,94882.86
2018-01-04T21:30:12.546Z,94887.23
2018-01-04T21:32:40.314Z,94884.73
2018-01-04T21:35:09.464Z,94892.19
2018-01-04T21:37:37.170Z,94890.98
2018-01-04T21:40:04.936Z,94890.80
2018-01-04T21:42:32.653Z,94891.23
2018-01-04T21:45:01.096Z,94893.34
2018-01-04T21:47:28.889Z,94884.23
2018-01-04T21:49:56.586Z,94892.94
2018-01-04T21:52:24.250Z,94891.33
2018-01-04T21:54:52.640Z,94885.80
2018-01-04T21:57:20.614Z,94884.70
2018-01-04T21:59:48.464Z,94892.55
2018-01-04T22:02:16.170Z,94883.34
2018-01-04T22:04:43.844Z,94887.81
2018-01-04T22:07:11.806Z,94886.44
2018-01-04T22:09:39.755Z,94877.63
2018-01-04T22:12:07.635Z,94875.92
2018-01-04T22:14:36.065Z,94879.28
2018-01-04T22:17:03.751Z,94878.42
2018-01-04T22:19:31.356Z,94880.30
2018-01-04T22:21:59.029Z,94881.42
2018-01-04T22:24:26.752Z,94877.50
2018-01-04T22:26:54.395Z,94880.36
2018-01-04T22:29:22.047Z,94884.03
2018-01-04T22:31:49.717Z,94877.53
2018-01-04T22:34:17.336Z,94884.52
2018-01-04T22:36:44.905Z,94885.42
2018-01-04T22:39:14.338Z,94884.24
2018-01-04T22:41:42.724Z,94887.00
2018-01-04T22:44:10.373Z,94882.80
2018-01-04T22:46:37.979Z,94891.92
2018-01-04T22:49:05.662Z,94887.44
2018-01-04T22:51:33.255Z,94885.29
2018-01-04T22:54:00.956Z,94869.38
2018-01-04T22:56:28.572Z,94875.02
2018-01-04T22:58:56.139Z,94869.80
2018-01-04T23:01:24.042Z,94871.87
2018-01-04T23:03:51.863Z,94868.54
2018-01-04T23:06:19.651Z,94871.47
2018-01-04T23:08:47.252Z,94863.30
2018-01-04T23:11:15.362Z,94864.00
2018-01-04T23:13:43.010Z,94857.24
2018-01-04T23:16:10.933Z,94851.59
2018-01-04T23:18:53.317Z,94844.05
2018-01-04T23:21:21.674Z,94843.67
2018-01-04T23:23:49.476Z,94855.56
2018-01-04T23:26:17.114Z,94860.59
2018-01-04T23:28:44.827Z,94860.80
2018-01-04T23:31:12.436Z,94856.09
2018-01-04T23:33:40.061Z,94864.34
2018-01-04T23:36:08.824Z,94861.16
2018-01-04T23:38:37.485Z,94855.28
2018-01-04T23:41:06.508Z,94846.86
2018-01-04T23:43:35.250Z,94845.83
2018-01-04T23:46:02.917Z,94842.02
2018-01-04T23:48:31.234Z,94850.19
2018-01-04T23:50:58.910Z,94852.39
2018-01-04T23:53:26.772Z,94849.48
2018-01-04T23:55:54.428Z,94851.66
2018-01-04T23:58:23.837Z,94854.39
